createdAt,value
2022-09-10T00:00:39.811Z,81.09
2022-09-10T00:03:07.089Z,80.85
2022-09-10T00:05:44.650Z,81.00
2022-09-10T00:08:11.355Z,81.13
2022-09-10T00:10:46.427Z,81.14
2022-09-10T00:13:15.119Z,81.39
2022-09-10T00:15:48.223Z,81.36
2022-09-10T00:18:16.364Z,81.38
2022-09-10T00:20:47.848Z,81.30
2022-09-10T00:23:15.647Z,81.22
2022-09-10T00:25:42.129Z,81.64
2022-09-10T00:28:09.227Z,81.54
2022-09-10T00:30:43.671Z,81.56
2022-09-10T00:33:10.133Z,81.47
2022-09-10T00:35:37.283Z,80.97
2022-09-10T00:38:04.260Z,81.03
2022-09-10T00:40:31.012Z,81.13
2022-09-10T00:42:58.007Z,81.09
2022-09-10T00:45:27.694Z,81.23
2022-09-10T00:47:58.888Z,81.10
2022-09-10T00:50:29.217Z,81.25
2022-09-10T00:53:00.374Z,81.23
2022-09-10T00:55:27.706Z,81.14
2022-09-10T00:57:57.942Z,81.37
2022-09-10T01:00:24.843Z,81.44
2022-09-10T01:02:51.187Z,81.52
2022-09-10T01:05:19.267Z,81.31
2022-09-10T01:07:45.630Z,81.33
2022-09-10T01:10:16.389Z,81.23
2022-09-10T01:13:05.320Z,81.13
2022-09-10T01:15:50.477Z,81.40
2022-09-10T01:18:19.553Z,81.53
2022-09-10T01:20:58.480Z,81.52
2022-09-10T01:23:49.316Z,80.76
2022-09-10T01:26:36.943Z,80.93
2022-09-10T01:29:20.356Z,81.37
2022-09-10T01:32:06.531Z,81.77
2022-09-10T01:34:41.191Z,81.83
2022-09-10T01:37:15.787Z,81.67
2022-09-10T01:39:42.255Z,81.63
2022-09-10T01:42:08.585Z,81.55
2022-09-10T01:44:43.263Z,81.53
2022-09-10T01:47:27.209Z,81.27
2022-09-10T01:49:58.223Z,81.51
2022-09-10T01:52:42.906Z,81.35
2022-09-10T01:55:33.034Z,81.62
2022-09-10T01:58:12.403Z,81.54
2022-09-10T02:00:44.503Z,81.85
2022-09-10T02:03:18.649Z,81.57
2022-09-10T02:05:49.882Z,81.57
2022-09-10T02:08:21.759Z,81.90
2022-09-10T02:11:00.163Z,81.82
2022-09-10T02:13:28.454Z,81.97
2022-09-10T02:15:55.098Z,82.11
2022-09-10T02:18:22.875Z,81.95
2022-09-10T02:20:52.249Z,81.89
2022-09-10T02:23:23.787Z,82.11
2022-09-10T02:25:50.132Z,82.51
2022-09-10T02:28:16.680Z,82.44
2022-09-10T02:30:42.978Z,82.17
2022-09-10T02:33:09.271Z,82.40
2022-09-10T02:35:35.566Z,82.47
2022-09-10T02:38:01.861Z,82.52
2022-09-10T02:40:28.149Z,82.62
2022-09-10T02:42:54.452Z,83.00
2022-09-10T02:45:20.939Z,82.93
2022-09-10T02:47:47.280Z,82.92
2022-09-10T02:50:13.614Z,83.37
2022-09-10T02:52:39.911Z,83.37
2022-09-10T02:55:06.767Z,83.39
2022-09-10T02:57:33.072Z,83.63
2022-09-10T02:59:59.352Z,83.27
2022-09-10T03:02:25.663Z,83.20
2022-09-10T03:04:51.934Z,83.05
2022-09-10T03:07:18.248Z,83.13
2022-09-10T03:09:44.519Z,83.04
2022-09-10T03:12:10.795Z,82.76
2022-09-10T03:14:37.100Z,82.66
2022-09-10T03:17:03.543Z,82.64
2022-09-10T03:19:29.854Z,82.27
2022-09-10T03:21:56.139Z,82.65
2022-09-10T03:24:22.447Z,82.94
2022-09-10T03:26:48.741Z,82.98
2022-09-10T03:29:15.052Z,82.89
2022-09-10T03:31:41.391Z,83.12
2022-09-10T03:34:10.168Z,83.22
2022-09-10T03:36:36.578Z,83.26
2022-09-10T03:39:02.951Z,83.10
2022-09-10T03:41:29.246Z,83.28
2022-09-10T03:43:55.555Z,83.31
2022-09-10T03:46:22.055Z,83.06
2022-09-10T03:48:51.025Z,82.86
2022-09-10T03:51:21.017Z,83.24
2022-09-10T03:53:47.310Z,83.26
2022-09-10T03:56:13.589Z,83.45
2022-09-10T03:58:40.036Z,83.72
2022-09-10T04:01:06.612Z,83.62
2022-09-10T04:03:32.993Z,83.83
2022-09-10T04:05:59.277Z,84.17
2022-09-10T04:08:25.655Z,84.44
2022-09-10T04:10:51.944Z,84.49
2022-09-10T04:13:18.228Z,84.33
2022-09-10T04:15:44.552Z,83.83
2022-09-10T04:18:11.112Z,84.00
2022-09-10T04:20:37.460Z,84.19
2022-09-10T04:23:04.339Z,84.45
2022-09-10T04:25:31.196Z,84.35
2022-09-10T04:27:57.507Z,84.25
2022-09-10T04:30:23.817Z,84.38
2022-09-10T04:32:50.098Z,84.50
2022-09-10T04:35:16.423Z,84.54
2022-09-10T04:37:42.768Z,84.47
2022-09-10T04:40:10.146Z,84.42
2022-09-10T04:42:36.467Z,84.44
2022-09-10T04:45:02.862Z,84.24
2022-09-10T04:47:29.138Z,84.37
2022-09-10T04:49:55.426Z,84.38
2022-09-10T04:52:21.870Z,84.38
2022-09-10T04:54:48.779Z,84.13
2022-09-10T04:57:15.251Z,83.92
2022-09-10T04:59:41.706Z,83.73
2022-09-10T05:02:08.067Z,84.10
2022-09-10T05:04:34.673Z,84.33
2022-09-10T05:07:01.363Z,84.36
2022-09-10T05:09:27.847Z,84.18
2022-09-10T05:11:54.126Z,84.28
2022-09-10T05:14:20.433Z,84.25
2022-09-10T05:16:46.787Z,84.06
2022-09-10T05:19:13.108Z,83.96
2022-09-10T05:21:39.402Z,83.97
2022-09-10T05:24:05.930Z,83.92
2022-09-10T05:26:32.222Z,83.48
2022-09-10T05:28:58.500Z,83.06
2022-09-10T05:31:24.805Z,82.50
2022-09-10T05:33:51.123Z,82.12
2022-09-10T05:36:17.435Z,82.03
2022-09-10T05:38:43.923Z,81.68
2022-09-10T05:41:10.853Z,81.71
2022-09-10T05:43:37.247Z,81.43
2022-09-10T05:46:04.386Z,81.07
2022-09-10T05:48:30.685Z,80.85
2022-09-10T05:50:57.366Z,80.71
2022-09-10T05:53:23.720Z,80.68
2022-09-10T05:55:50.015Z,80.52
2022-09-10T05:58:16.314Z,80.26
2022-09-10T06:00:42.658Z,79.99
2022-09-10T06:03:09.246Z,79.12
2022-09-10T06:05:35.820Z,78.18
2022-09-10T06:08:06.525Z,76.46
2022-09-10T06:10:34.791Z,73.81
2022-09-10T06:13:01.100Z,73.59
2022-09-10T06:15:27.404Z,70.90
2022-09-10T06:17:53.681Z,70.00
2022-09-10T06:20:19.985Z,70.48
2022-09-10T06:22:46.338Z,70.46
2022-09-10T06:25:12.641Z,68.67
2022-09-10T06:27:38.946Z,67.75
2022-09-10T06:30:05.652Z,67.85
2022-09-10T06:32:32.011Z,68.17
2022-09-10T06:34:58.348Z,68.70
2022-09-10T06:37:24.643Z,68.19
2022-09-10T06:39:50.978Z,66.92
2022-09-10T06:42:17.274Z,65.74
2022-09-10T06:44:43.577Z,65.37
2022-09-10T06:49:56.134Z,65.70
2022-09-10T06:52:22.431Z,67.53
2022-09-10T06:54:48.719Z,68.47
2022-09-10T06:57:15.010Z,68.61
2022-09-10T06:59:41.295Z,69.49
2022-09-10T07:02:08.498Z,69.81
2022-09-10T07:04:34.818Z,70.17
2022-09-10T07:07:01.121Z,70.79
2022-09-10T07:09:27.402Z,70.51
2022-09-10T07:11:53.711Z,70.79
2022-09-10T07:14:20.015Z,71.07
2022-09-10T07:16:46.309Z,69.57
2022-09-10T07:19:12.682Z,69.74
2022-09-10T07:21:38.978Z,69.12
2022-09-10T07:24:05.859Z,68.56
2022-09-10T07:26:32.547Z,68.31
2022-09-10T07:29:00.608Z,67.46
2022-09-10T07:31:32.162Z,66.74
2022-09-10T07:33:58.450Z,65.34
2022-09-10T07:36:25.386Z,66.11
2022-09-10T07:38:53.403Z,66.39
2022-09-10T07:41:20.187Z,66.82
2022-09-10T07:43:46.657Z,66.68
2022-09-10T07:46:17.903Z,65.82
2022-09-10T07:48:44.265Z,65.61
2022-09-10T07:51:10.631Z,65.23
2022-09-10T07:53:37.253Z,66.35
2022-09-10T07:56:08.156Z,66.68
2022-09-10T07:58:35.550Z,67.74
2022-09-10T08:01:06.055Z,67.42
2022-09-10T08:03:32.408Z,67.55
2022-09-10T08:06:02.912Z,67.75
2022-09-10T08:08:30.695Z,68.40
2022-09-10T08:11:18.202Z,68.54
2022-09-10T08:13:49.721Z,68.06
2022-09-10T08:16:25.206Z,68.34
2022-09-10T08:18:51.769Z,69.92
2022-09-10T08:21:19.155Z,69.69
2022-09-10T08:23:54.330Z,70.38
2022-09-10T08:26:22.183Z,69.70
2022-09-10T08:28:48.564Z,70.43
2022-09-10T08:31:14.994Z,70.71
2022-09-10T08:33:41.599Z,70.18
2022-09-10T08:36:10.927Z,70.24
2022-09-10T08:38:39.416Z,71.01
2022-09-10T08:41:22.069Z,70.50
2022-09-10T08:44:10.518Z,70.25
2022-09-10T08:46:40.547Z,70.22
2022-09-10T08:49:42.183Z,69.71
2022-09-10T08:52:19.095Z,68.68
2022-09-10T08:54:57.390Z,68.45
2022-09-10T08:57:27.906Z,68.22
2022-09-10T08:59:56.669Z,67.52
2022-09-10T09:02:48.383Z,65.92
2022-09-10T09:05:18.531Z,65.51
2022-09-10T09:07:45.872Z,65.45
2022-09-10T09:10:30.159Z,65.29
2022-09-10T09:13:26.770Z,65.11
2022-09-10T09:16:31.856Z,65.34
2022-09-10T09:19:12.767Z,64.70
2022-09-10T09:21:53.465Z,64.10
2022-09-10T09:24:28.611Z,64.34
2022-09-10T09:27:01.685Z,63.83
2022-09-10T09:29:34.605Z,62.88
2022-09-10T09:32:04.062Z,60.71
2022-09-10T09:34:49.920Z,62.95
2022-09-10T09:37:26.591Z,63.24
2022-09-10T09:40:27.194Z,64.02
2022-09-10T09:43:28.660Z,64.72
2022-09-10T09:45:55.242Z,65.96
2022-09-10T09:48:22.984Z,67.02
2022-09-10T09:50:53.846Z,67.45
2022-09-10T09:53:26.227Z,66.82
2022-09-10T09:55:58.273Z,65.95
2022-09-10T09:58:24.537Z,63.96
2022-09-10T10:01:05.970Z,63.88
2022-09-10T10:03:46.751Z,62.35
2022-09-10T10:06:13.239Z,61.22
2022-09-10T10:08:44.125Z,61.35
2022-09-10T10:11:15.571Z,60.91
2022-09-10T10:13:45.315Z,61.17
2022-09-10T10:16:22.799Z,60.19
2022-09-10T10:18:50.368Z,59.04
2022-09-10T10:21:45.752Z,58.32
2022-09-10T10:24:31.537Z,59.10
2022-09-10T10:26:59.085Z,58.86
2022-09-10T10:29:26.349Z,60.53
2022-09-10T10:31:53.574Z,59.63
2022-09-10T10:34:22.905Z,58.97
2022-09-10T10:36:55.280Z,59.54
2022-09-10T10:39:43.518Z,60.88
2022-09-10T10:42:42.321Z,61.11
2022-09-10T10:45:28.590Z,60.72
2022-09-10T10:48:20.100Z,58.57
2022-09-10T10:51:11.137Z,57.11
2022-09-10T10:53:45.959Z,58.52
2022-09-10T10:56:32.174Z,57.52
2022-09-10T10:59:32.859Z,55.98
2022-09-10T11:02:22.184Z,56.02
2022-09-10T11:04:51.399Z,55.74
2022-09-10T11:07:37.544Z,53.60
2022-09-10T11:10:14.533Z,52.66
2022-09-10T11:12:50.105Z,54.00
2022-09-10T11:15:31.671Z,52.79
2022-09-10T11:18:05.470Z,53.32
2022-09-10T11:20:37.494Z,52.47
2022-09-10T11:23:12.682Z,52.54
2022-09-10T11:25:50.586Z,50.40
2022-09-10T11:28:23.744Z,51.14
2022-09-10T11:30:58.045Z,51.89
2022-09-10T11:33:36.301Z,52.11
2022-09-10T11:36:11.151Z,52.03
2022-09-10T11:39:16.677Z,51.75
2022-09-10T11:41:46.292Z,51.50
2022-09-10T11:44:15.362Z,52.46
2022-09-10T11:47:08.883Z,53.08
2022-09-10T11:49:39.154Z,53.53
2022-09-10T11:52:05.484Z,53.26
2022-09-10T11:54:35.364Z,52.60
2022-09-10T11:57:14.662Z,52.72
2022-09-10T12:00:09.134Z,51.74
2022-09-10T12:03:00.309Z,50.04
2022-09-10T12:05:44.871Z,51.32
2022-09-10T12:08:23.437Z,49.81
2022-09-10T12:11:11.798Z,50.28
2022-09-10T12:13:39.061Z,50.65
2022-09-10T12:16:36.085Z,53.77
2022-09-10T12:19:08.317Z,52.79
2022-09-10T12:21:41.259Z,53.50
2022-09-10T12:24:23.040Z,54.14
2022-09-10T12:26:49.605Z,53.30
2022-09-10T12:29:32.086Z,54.53
2022-09-10T12:32:20.078Z,56.04
2022-09-10T12:34:47.817Z,56.09
2022-09-10T12:37:26.053Z,55.53
2022-09-10T12:40:26.367Z,56.10
2022-09-10T12:42:58.039Z,58.31
2022-09-10T12:46:03.885Z,60.55
2022-09-10T12:48:32.722Z,61.37
2022-09-10T12:50:59.622Z,62.20
2022-09-10T12:53:46.365Z,62.80
2022-09-10T12:56:37.699Z,62.54
2022-09-10T12:59:21.441Z,62.66
2022-09-10T13:01:50.186Z,63.11
2022-09-10T13:04:28.029Z,63.33
2022-09-10T13:06:58.678Z,64.35
2022-09-10T13:09:43.167Z,63.31
2022-09-10T13:12:22.429Z,63.37
2022-09-10T13:14:52.701Z,62.35
2022-09-10T13:17:35.972Z,62.92
2022-09-10T13:20:20.436Z,63.96
2022-09-10T13:23:08.226Z,63.12
2022-09-10T13:25:41.849Z,63.18
2022-09-10T13:28:31.429Z,63.61
2022-09-10T13:31:09.735Z,64.00
2022-09-10T13:33:51.459Z,64.33
2022-09-10T13:36:29.966Z,63.31
2022-09-10T13:39:17.088Z,63.94
2022-09-10T13:42:01.881Z,63.93
2022-09-10T13:44:59.454Z,63.41
2022-09-10T13:47:37.470Z,63.40
2022-09-10T13:50:17.553Z,63.56
2022-09-10T13:52:46.991Z,63.25
2022-09-10T13:55:20.245Z,63.43
2022-09-10T13:57:50.055Z,63.68
2022-09-10T14:00:21.000Z,63.45
2022-09-10T14:02:58.700Z,61.82
2022-09-10T14:06:12.597Z,61.04
2022-09-10T14:08:56.059Z,61.93
2022-09-10T14:11:34.901Z,60.70
2022-09-10T14:14:20.798Z,61.16
2022-09-10T14:16:54.016Z,61.25
2022-09-10T14:19:28.810Z,61.03
2022-09-10T14:21:55.541Z,61.71
2022-09-10T14:24:32.391Z,62.98
2022-09-10T14:27:22.432Z,63.11
2022-09-10T14:29:48.903Z,62.13
2022-09-10T14:32:32.538Z,61.20
2022-09-10T14:35:01.182Z,60.67
2022-09-10T14:37:34.211Z,60.71
2022-09-10T14:40:20.790Z,59.69
2022-09-10T14:42:49.163Z,59.14
2022-09-10T14:45:38.675Z,59.78
2022-09-10T14:48:05.138Z,59.02
2022-09-10T14:50:33.175Z,58.97
2022-09-10T14:52:59.845Z,59.22
2022-09-10T14:55:30.361Z,58.29
2022-09-10T14:57:57.214Z,57.90
2022-09-10T15:00:24.270Z,59.51
2022-09-10T15:02:55.071Z,59.32
2022-09-10T15:05:21.586Z,59.15
2022-09-10T15:07:47.985Z,59.38
2022-09-10T15:10:14.537Z,60.65
2022-09-10T15:12:45.085Z,60.58
2022-09-10T15:15:17.427Z,61.06
2022-09-10T15:17:44.065Z,61.73
2022-09-10T15:20:15.458Z,61.93
2022-09-10T15:22:41.818Z,61.89
2022-09-10T15:25:35.983Z,61.87
2022-09-10T15:28:04.669Z,62.26
2022-09-10T15:30:31.043Z,62.39
2022-09-10T15:32:57.366Z,62.14
2022-09-10T15:35:24.865Z,62.40
2022-09-10T15:37:51.221Z,63.54
2022-09-10T15:40:17.663Z,64.15
2022-09-10T15:42:44.016Z,63.98
2022-09-10T15:45:10.578Z,64.13
2022-09-10T15:47:37.972Z,63.96
2022-09-10T15:50:04.800Z,64.72
2022-09-10T15:52:31.114Z,65.08
2022-09-10T15:54:57.477Z,66.25
2022-09-10T15:57:23.869Z,66.79
2022-09-10T15:59:50.213Z,67.96
2022-09-10T16:02:16.708Z,67.15
2022-09-10T16:04:43.297Z,66.98
2022-09-10T16:07:10.065Z,66.36
2022-09-10T16:09:36.552Z,65.79
2022-09-10T16:12:04.062Z,65.34
2022-09-10T16:14:30.368Z,65.07
2022-09-10T16:16:56.722Z,64.61
2022-09-10T16:19:23.054Z,64.26
2022-09-10T16:21:49.406Z,63.55
2022-09-10T16:24:15.855Z,62.92
2022-09-10T16:26:43.166Z,63.03
2022-09-10T16:29:17.472Z,62.68
2022-09-10T16:31:44.205Z,63.34
2022-09-10T16:34:12.284Z,63.58
2022-09-10T16:36:39.220Z,63.39
2022-09-10T16:39:08.268Z,62.70
2022-09-10T16:41:34.696Z,63.10
2022-09-10T16:44:01.544Z,63.79
2022-09-10T16:46:28.220Z,64.25
2022-09-10T16:48:55.886Z,64.65
2022-09-10T16:51:24.490Z,65.36
2022-09-10T16:53:56.697Z,65.25
2022-09-10T16:56:25.273Z,65.46
2022-09-10T16:58:51.783Z,66.17
2022-09-10T17:01:18.242Z,66.02
2022-09-10T17:03:46.574Z,65.86
2022-09-10T17:06:16.499Z,66.86
2022-09-10T17:08:42.896Z,66.97
2022-09-10T17:11:09.304Z,67.21
2022-09-10T17:13:35.778Z,67.36
2022-09-10T17:16:13.273Z,68.28
2022-09-10T17:18:39.645Z,68.78
2022-09-10T17:21:06.028Z,69.30
2022-09-10T17:23:32.426Z,69.75
2022-09-10T17:26:04.519Z,70.55
2022-09-10T17:28:30.876Z,70.85
2022-09-10T17:30:57.464Z,71.53
2022-09-10T17:33:27.239Z,72.16
2022-09-10T17:36:04.117Z,72.67
2022-09-10T17:38:32.161Z,74.13
2022-09-10T17:41:01.142Z,75.02
2022-09-10T17:43:29.654Z,75.87
2022-09-10T17:45:56.195Z,76.36
2022-09-10T17:48:26.363Z,76.00
2022-09-10T17:50:54.526Z,76.47
2022-09-10T17:53:20.914Z,77.19
2022-09-10T17:55:47.251Z,76.94
2022-09-10T17:58:14.002Z,76.39
2022-09-10T18:00:42.822Z,76.14
2022-09-10T18:03:12.983Z,75.95
2022-09-10T18:05:39.845Z,76.09
2022-09-10T18:08:06.465Z,76.45
2022-09-10T18:10:34.066Z,76.96
2022-09-10T18:13:00.639Z,77.67
2022-09-10T18:15:28.603Z,77.95
2022-09-10T18:17:56.390Z,78.08
2022-09-10T18:20:22.695Z,78.00
2022-09-10T18:22:49.501Z,78.28
2022-09-10T18:25:15.864Z,79.12
2022-09-10T18:27:42.242Z,79.86
2022-09-10T18:30:09.801Z,79.91
2022-09-10T18:32:36.098Z,80.01
2022-09-10T18:35:02.470Z,80.22
2022-09-10T18:37:28.824Z,80.08
2022-09-10T18:39:55.200Z,80.52
2022-09-10T18:42:21.611Z,80.84
2022-09-10T18:44:48.047Z,80.65
2022-09-10T18:47:34.080Z,80.53
2022-09-10T18:50:00.837Z,80.54
2022-09-10T18:52:27.990Z,81.21
2022-09-10T18:54:54.617Z,81.30
2022-09-10T18:57:20.977Z,81.38
2022-09-10T18:59:47.510Z,81.43
2022-09-10T19:02:13.974Z,81.41
2022-09-10T19:05:00.451Z,81.58
2022-09-10T19:07:26.729Z,81.85
2022-09-10T19:09:53.056Z,82.10
2022-09-10T19:12:19.435Z,82.52
2022-09-10T19:14:45.743Z,82.62
2022-09-10T19:17:12.111Z,82.50
2022-09-10T19:19:38.414Z,82.58
2022-09-10T19:22:05.615Z,82.67
2022-09-10T19:24:53.465Z,82.64
2022-09-10T19:27:18.371Z,82.76
2022-09-10T19:29:44.731Z,82.45
2022-09-10T19:32:11.096Z,82.28
2022-09-10T19:34:37.394Z,82.23
2022-09-10T19:37:03.853Z,82.23
2022-09-10T19:39:30.177Z,82.17
2022-09-10T19:41:56.511Z,82.09
2022-09-10T19:44:22.850Z,82.84
2022-09-10T19:46:49.144Z,83.23
2022-09-10T19:49:15.463Z,83.37
2022-09-10T19:51:41.747Z,83.19
2022-09-10T19:54:11.751Z,83.27
2022-09-10T19:56:41.188Z,82.87
2022-09-10T19:59:08.031Z,82.80
2022-09-10T20:01:37.612Z,82.77
2022-09-10T20:04:07.699Z,83.28
2022-09-10T20:06:34.963Z,83.88
2022-09-10T20:09:05.429Z,84.34
2022-09-10T20:11:33.985Z,84.25
2022-09-10T20:14:10.065Z,84.56
2022-09-10T20:16:38.829Z,85.17
2022-09-10T20:19:06.656Z,85.31
2022-09-10T20:21:34.392Z,85.30
2022-09-10T20:24:01.243Z,85.22
2022-09-10T20:26:31.269Z,84.55
2022-09-10T20:29:02.632Z,83.46
2022-09-10T20:31:31.370Z,83.71
2022-09-10T20:34:03.105Z,84.18
2022-09-10T20:36:30.504Z,83.58
2022-09-10T20:38:57.013Z,82.78
2022-09-10T20:41:24.588Z,82.97
2022-09-10T20:43:52.437Z,83.19
2022-09-10T20:46:21.238Z,82.90
2022-09-10T20:48:49.427Z,82.74
2022-09-10T20:51:16.100Z,82.15
2022-09-10T20:53:42.404Z,82.33
2022-09-10T20:56:12.746Z,82.40
2022-09-10T20:58:39.227Z,82.16
2022-09-10T21:01:19.930Z,82.04
2022-09-10T21:03:48.040Z,82.16
2022-09-10T21:06:17.262Z,81.99
2022-09-10T21:08:43.751Z,82.17
2022-09-10T21:11:13.128Z,82.11
2022-09-10T21:13:50.949Z,83.26
2022-09-10T21:16:34.572Z,84.15
2022-09-10T21:19:03.555Z,82.53
2022-09-10T21:21:32.308Z,81.71
2022-09-10T21:24:00.817Z,81.53
2022-09-10T21:26:29.943Z,81.91
2022-09-10T21:28:58.666Z,81.25
2022-09-10T21:31:26.911Z,81.42
2022-09-10T21:33:58.386Z,80.97
2022-09-10T21:36:27.682Z,81.83
2022-09-10T21:38:56.866Z,82.35
2022-09-10T21:41:32.202Z,83.38
2022-09-10T21:44:00.862Z,84.26
2022-09-10T21:46:27.787Z,84.91
2022-09-10T21:48:54.192Z,85.23
2022-09-10T21:51:21.126Z,85.60
2022-09-10T21:53:48.245Z,85.80
2022-09-10T21:56:16.775Z,85.57
2022-09-10T21:58:45.496Z,84.43
2022-09-10T22:01:14.665Z,83.34
2022-09-10T22:03:41.099Z,83.26
2022-09-10T22:06:09.873Z,83.42
2022-09-10T22:08:37.679Z,83.28
2022-09-10T22:11:10.354Z,83.59
2022-09-10T22:13:36.654Z,83.04
2022-09-10T22:16:04.399Z,83.44
2022-09-10T22:18:30.778Z,83.33
2022-09-10T22:20:58.254Z,83.00
2022-09-10T22:23:24.567Z,83.12
2022-09-10T22:25:50.848Z,83.72
2022-09-10T22:28:17.146Z,84.77
2022-09-10T22:30:43.444Z,85.73
2022-09-10T22:33:09.751Z,85.89
2022-09-10T22:35:36.048Z,85.51
2022-09-10T22:38:02.331Z,85.15
2022-09-10T22:40:28.640Z,85.29
2022-09-10T22:42:54.927Z,84.91
2022-09-10T22:45:21.214Z,84.38
2022-09-10T22:47:48.270Z,83.15
2022-09-10T22:50:14.853Z,82.72
2022-09-10T22:52:41.235Z,82.79
2022-09-10T22:55:08.102Z,82.63
2022-09-10T22:57:34.420Z,82.65
2022-09-10T23:00:00.814Z,83.71
2022-09-10T23:02:27.126Z,84.44
2022-09-10T23:04:53.422Z,84.26
2022-09-10T23:07:19.722Z,83.61
2022-09-10T23:09:45.994Z,83.80
2022-09-10T23:12:12.302Z,84.13
2022-09-10T23:14:38.586Z,84.65
2022-09-10T23:17:04.901Z,84.69
2022-09-10T23:19:31.202Z,84.94
2022-09-10T23:21:57.496Z,84.69
2022-09-10T23:24:25.203Z,84.77
2022-09-10T23:26:52.271Z,84.32
2022-09-10T23:29:18.745Z,84.75
2022-09-10T23:31:45.887Z,85.50
2022-09-10T23:34:14.855Z,85.79
2022-09-10T23:36:44.256Z,85.34
2022-09-10T23:39:16.446Z,85.74
2022-09-10T23:41:42.731Z,85.83
2022-09-10T23:44:09.385Z,85.95
2022-09-10T23:46:36.568Z,86.18
2022-09-10T23:49:03.501Z,85.77
2022-09-10T23:51:29.914Z,86.56
2022-09-10T23:53:56.187Z,86.96
2022-09-10T23:56:23.592Z,87.43
2022-09-10T23:58:49.919Z,88.38
